createdAt,value
2017-04-16T00:00:49.350Z,19.26
2017-04-16T00:01:59.343Z,19.23
2017-04-16T00:03:09.067Z,19.17
2017-04-16T00:04:19.349Z,19.2
2017-04-16T00:05:29.649Z,19.2
2017-04-16T00:06:39.297Z,19.2
2017-04-16T00:07:48.948Z,19.24
2017-04-16T00:08:59.238Z,19.19
2017-04-16T00:10:09.454Z,19.2
2017-04-16T00:11:19.732Z,19.23
2017-04-16T00:12:30.017Z,19.2
2017-04-16T00:13:40.307Z,19.2
2017-04-16T00:14:50.302Z,19.22
2017-04-16T00:16:00.577Z,19.19
2017-04-16T00:17:10.558Z,19.17
2017-04-16T00:18:20.837Z,19.27
2017-04-16T00:19:30.500Z,19.27
2017-04-16T00:20:40.471Z,19.2
2017-04-16T00:21:50.383Z,19.24
2017-04-16T00:23:00.664Z,19.2
2017-04-16T00:24:10.348Z,19.22
2017-04-16T00:25:20.323Z,19.22
2017-04-16T00:26:30.606Z,19.24
2017-04-16T00:27:41.136Z,19.23
2017-04-16T00:28:50.792Z,19.17
2017-04-16T00:30:01.097Z,19.2
2017-04-16T00:31:11.380Z,19.16
2017-04-16T00:32:21.683Z,19.24
2017-04-16T00:33:32.276Z,19.24
2017-04-16T00:34:42.254Z,19.22
2017-04-16T00:35:52.529Z,19.22
2017-04-16T00:37:02.504Z,19.23
2017-04-16T00:38:12.789Z,19.2
2017-04-16T00:39:23.318Z,19.19
2017-04-16T00:40:33.293Z,19.26
2017-04-16T00:41:43.310Z,19.22
2017-04-16T00:42:53.484Z,19.17
2017-04-16T00:44:03.465Z,19.16
2017-04-16T00:45:13.705Z,19.22
2017-04-16T00:46:23.979Z,19.24
2017-04-16T00:47:34.281Z,19.17
2017-04-16T00:48:44.577Z,19.2
2017-04-16T00:49:54.867Z,19.2
2017-04-16T00:51:05.411Z,19.19
2017-04-16T00:52:15.707Z,19.19
2017-04-16T00:53:25.359Z,19.22
2017-04-16T00:54:35.323Z,19.19
2017-04-16T00:55:45.620Z,19.17
2017-04-16T00:56:56.159Z,19.11
2017-04-16T00:58:06.449Z,19.12
2017-04-16T00:59:16.724Z,19.15
2017-04-16T01:00:27.010Z,19.19
2017-04-16T01:01:36.665Z,19.12
2017-04-16T01:02:46.876Z,19.15
2017-04-16T01:03:56.844Z,19.2
2017-04-16T01:05:06.811Z,19.19
2017-04-16T01:06:16.772Z,19.16
2017-04-16T01:07:27.047Z,19.12
2017-04-16T01:08:37.327Z,19.16
2017-04-16T01:09:47.608Z,19.19
2017-04-16T01:10:57.893Z,19.08
2017-04-16T01:12:07.866Z,19.2
2017-04-16T01:13:18.146Z,19.15
2017-04-16T01:14:28.690Z,19.16
2017-04-16T01:15:38.968Z,19.19
2017-04-16T01:16:49.242Z,19.16
2017-04-16T01:17:59.518Z,19.19
2017-04-16T01:19:09.792Z,19.19
2017-04-16T01:20:20.382Z,19.17
2017-04-16T01:21:30.355Z,19.17
2017-04-16T01:22:40.638Z,19.08
2017-04-16T01:23:50.920Z,19.19
2017-04-16T01:25:01.212Z,19.19
2017-04-16T01:26:11.762Z,19.08
2017-04-16T01:27:22.036Z,19.19
2017-04-16T01:28:32.315Z,19.07
2017-04-16T01:29:42.624Z,19.19
2017-04-16T01:30:52.903Z,19.16
2017-04-16T01:32:02.878Z,19.15
2017-04-16T01:33:13.160Z,19.15
2017-04-16T01:34:23.438Z,19.2
2017-04-16T01:35:33.725Z,19.16
2017-04-16T01:36:43.691Z,19.08
2017-04-16T01:37:53.961Z,19.01
2017-04-16T01:39:04.198Z,19.09
2017-04-16T01:40:14.473Z,19.07
2017-04-16T01:41:24.184Z,19.05
2017-04-16T01:42:34.147Z,19.12
2017-04-16T01:43:44.267Z,19.07
2017-04-16T01:44:54.757Z,19.12
2017-04-16T01:46:04.724Z,19.07
2017-04-16T01:47:15.014Z,19.08
2017-04-16T01:48:25.303Z,19.08
2017-04-16T01:49:35.877Z,19.11
2017-04-16T01:50:46.158Z,19.08
2017-04-16T01:51:56.127Z,19.05
2017-04-16T01:53:05.795Z,19.11
2017-04-16T01:54:15.793Z,19.2
2017-04-16T01:55:26.071Z,19.16
2017-04-16T01:56:36.044Z,19.08
2017-04-16T01:57:46.320Z,19.05
2017-04-16T01:58:56.000Z,19.08
2017-04-16T02:00:06.298Z,19.12
2017-04-16T02:01:16.842Z,19.17
2017-04-16T02:02:27.121Z,19.05
2017-04-16T02:03:36.791Z,19.07
2017-04-16T02:04:46.767Z,19.05
2017-04-16T02:05:57.038Z,19.07
2017-04-16T02:07:07.565Z,19.05
2017-04-16T02:08:17.534Z,19.07
2017-04-16T02:09:27.507Z,19.05
2017-04-16T02:10:37.468Z,19.07
2017-04-16T02:11:47.759Z,19.05
2017-04-16T02:12:58.293Z,19.09
2017-04-16T02:14:08.272Z,19.05
2017-04-16T02:15:18.554Z,19.08
2017-04-16T02:16:28.529Z,19.05
2017-04-16T02:17:38.224Z,19.01
2017-04-16T02:18:48.817Z,19.09
2017-04-16T02:19:59.115Z,19.17
2017-04-16T02:21:09.394Z,19.07
2017-04-16T02:22:19.364Z,19.05
2017-04-16T02:23:29.908Z,19.01
2017-04-16T02:24:40.455Z,19.07
2017-04-16T02:25:50.733Z,19.19
2017-04-16T02:27:00.695Z,19.07
2017-04-16T02:28:10.677Z,19.08
2017-04-16T02:29:20.970Z,19.08
2017-04-16T02:30:31.503Z,19.01
2017-04-16T02:31:41.481Z,19.01
2017-04-16T02:32:51.813Z,19.08
2017-04-16T02:34:02.101Z,19.12
2017-04-16T02:35:12.380Z,19.12
2017-04-16T02:36:22.639Z,19.04
2017-04-16T02:37:33.002Z,19.11
2017-04-16T02:38:42.699Z,19.11
2017-04-16T02:39:52.985Z,19.09
2017-04-16T02:41:03.279Z,19.16
2017-04-16T02:42:13.815Z,19.17
2017-04-16T02:43:24.098Z,19.01
2017-04-16T02:44:34.383Z,19.07
2017-04-16T02:45:44.352Z,19.09
2017-04-16T02:46:54.640Z,19.04
2017-04-16T02:48:05.225Z,19.07
2017-04-16T02:49:15.208Z,19.04
2017-04-16T02:50:25.175Z,19.08
2017-04-16T02:51:35.455Z,19.04
2017-04-16T02:52:45.738Z,19.01
2017-04-16T02:53:56.264Z,19.08
2017-04-16T02:55:06.543Z,19.11
2017-04-16T02:56:16.827Z,19.08
2017-04-16T02:57:27.110Z,19.09
2017-04-16T02:58:36.772Z,19.04
2017-04-16T02:59:47.295Z,19.12
2017-04-16T03:00:57.571Z,19.07
2017-04-16T03:02:07.854Z,19.09
2017-04-16T03:03:18.143Z,19.08
2017-04-16T03:04:28.532Z,19.07
2017-04-16T03:05:39.264Z,19.08
2017-04-16T03:06:49.606Z,19.09
2017-04-16T03:07:59.634Z,19.07
2017-04-16T03:09:09.602Z,19.07
2017-04-16T03:10:19.902Z,19.09
2017-04-16T03:11:29.853Z,19.04
2017-04-16T03:12:40.136Z,19
2017-04-16T03:13:50.117Z,19.09
2017-04-16T03:14:59.466Z,19.08
2017-04-16T03:16:09.423Z,19.09
2017-04-16T03:17:19.966Z,19.09
2017-04-16T03:18:30.249Z,19.11
2017-04-16T03:19:40.540Z,19.05
2017-04-16T03:20:50.824Z,19.04
2017-04-16T03:22:00.781Z,19.11
2017-04-16T03:23:10.693Z,19.08
2017-04-16T03:24:20.660Z,19.01
2017-04-16T03:25:30.943Z,19.08
2017-04-16T03:26:41.225Z,19.07
2017-04-16T03:27:51.510Z,19.07
2017-04-16T03:29:02.033Z,19.08
2017-04-16T03:30:11.694Z,19.08
2017-04-16T03:31:21.966Z,19.05
2017-04-16T03:32:31.945Z,19.01
2017-04-16T03:33:41.930Z,19.04
2017-04-16T03:34:52.463Z,19.07
2017-04-16T03:36:02.739Z,19.09
2017-04-16T03:37:12.161Z,19.05
2017-04-16T03:38:21.954Z,19.04
2017-04-16T03:39:32.236Z,19.01
2017-04-16T03:40:42.873Z,19.09
2017-04-16T03:41:52.843Z,19.01
2017-04-16T03:43:02.810Z,19.08
2017-04-16T03:44:13.095Z,19.04
2017-04-16T03:45:22.760Z,19.08
2017-04-16T03:46:32.983Z,19.05
2017-04-16T03:47:43.270Z,19.05
2017-04-16T03:48:53.561Z,19.04
2017-04-16T03:50:03.222Z,19.07
2017-04-16T03:51:12.875Z,19.08
2017-04-16T03:52:23.409Z,18.96
2017-04-16T03:53:33.710Z,19.11
2017-04-16T03:54:43.372Z,19.08
2017-04-16T03:55:53.673Z,19.07
2017-04-16T03:57:03.333Z,19.07
2017-04-16T03:58:13.910Z,19.08
2017-04-16T03:59:24.192Z,19.01
2017-04-16T04:00:34.472Z,19.05
2017-04-16T04:01:44.762Z,19.07
2017-04-16T04:02:55.047Z,19.07
2017-04-16T04:04:05.577Z,19.08
2017-04-16T04:05:15.562Z,19.07
2017-04-16T04:06:25.845Z,19.05
2017-04-16T04:07:36.118Z,19.04
2017-04-16T04:08:46.416Z,19.01
2017-04-16T04:09:57.009Z,19.07
2017-04-16T04:11:07.776Z,19.07
2017-04-16T04:12:18.061Z,19.08
2017-04-16T04:13:28.447Z,19.05
2017-04-16T04:14:38.728Z,19
2017-04-16T04:15:48.635Z,19.01
2017-04-16T04:16:58.622Z,19.08
2017-04-16T04:18:08.913Z,19
2017-04-16T04:19:19.215Z,19.04
2017-04-16T04:20:29.188Z,19.04
2017-04-16T04:21:39.098Z,18.96
2017-04-16T04:22:48.766Z,19.05
2017-04-16T04:23:58.730Z,18.98
2017-04-16T04:25:09.009Z,19.07
2017-04-16T04:26:19.286Z,18.96
2017-04-16T04:27:29.852Z,19.04
2017-04-16T04:28:40.131Z,19.04
2017-04-16T04:29:50.412Z,19.01
2017-04-16T04:31:00.698Z,19
2017-04-16T04:32:10.990Z,19
2017-04-16T04:33:21.530Z,19.04
2017-04-16T04:34:31.501Z,18.98
2017-04-16T04:35:41.478Z,18.97
2017-04-16T04:36:51.771Z,19
2017-04-16T04:38:02.050Z,18.98
2017-04-16T04:39:12.578Z,19.01
2017-04-16T04:40:22.865Z,18.89
2017-04-16T04:41:32.845Z,18.92
2017-04-16T04:42:43.123Z,18.97
2017-04-16T04:43:53.402Z,18.94
2017-04-16T04:45:04.126Z,18.92
2017-04-16T04:46:14.432Z,19.04
2017-04-16T04:47:24.562Z,18.98
2017-04-16T04:48:34.873Z,19.05
2017-04-16T04:49:45.154Z,18.98
2017-04-16T04:50:55.681Z,19.01
2017-04-16T04:52:05.662Z,18.98
2017-04-16T04:53:15.965Z,19.04
2017-04-16T04:54:25.935Z,19.01
2017-04-16T04:55:35.609Z,19
2017-04-16T04:56:46.130Z,19.05
2017-04-16T04:57:56.107Z,18.98
2017-04-16T04:59:06.391Z,19.01
2017-04-16T05:00:16.681Z,19
2017-04-16T05:01:26.649Z,19.01
2017-04-16T05:02:37.223Z,19.04
2017-04-16T05:03:47.528Z,18.98
2017-04-16T05:04:57.811Z,19.05
2017-04-16T05:06:07.792Z,19.04
2017-04-16T05:07:17.775Z,19.04
2017-04-16T05:08:28.054Z,18.94
2017-04-16T05:09:38.028Z,18.94
2017-04-16T05:10:47.688Z,19.08
2017-04-16T05:11:57.960Z,19.04
2017-04-16T05:13:07.619Z,18.96
2017-04-16T05:14:17.878Z,18.96
2017-04-16T05:15:27.842Z,19.05
2017-04-16T05:16:37.886Z,18.96
2017-04-16T05:17:48.409Z,19.01
2017-04-16T05:18:58.985Z,19
2017-04-16T05:20:09.519Z,18.96
2017-04-16T05:21:19.794Z,19.08
2017-04-16T05:22:29.771Z,18.98
2017-04-16T05:23:40.062Z,19.07
2017-04-16T05:24:50.341Z,19.04
2017-04-16T05:26:00.878Z,19
2017-04-16T05:27:10.856Z,18.98
2017-04-16T05:28:20.824Z,18.98
2017-04-16T05:29:31.114Z,19.04
2017-04-16T05:30:41.399Z,18.97
2017-04-16T05:31:51.614Z,19.01
2017-04-16T05:33:01.583Z,19.04
2017-04-16T05:34:11.552Z,19
2017-04-16T05:35:22.073Z,19.08
2017-04-16T05:36:32.045Z,19.07
2017-04-16T05:37:42.273Z,19.07
2017-04-16T05:38:52.251Z,19.05
2017-04-16T05:40:02.527Z,19.07
2017-04-16T05:41:12.509Z,19.08
2017-04-16T05:42:22.485Z,19.07
2017-04-16T05:43:33.020Z,19.07
2017-04-16T05:44:43.300Z,19.04
2017-04-16T05:45:52.971Z,19.04
2017-04-16T05:47:03.253Z,19.04
2017-04-16T05:48:13.217Z,19.07
2017-04-16T05:49:23.746Z,19.04
2017-04-16T05:50:33.563Z,19.07
2017-04-16T05:51:43.842Z,19.09
2017-04-16T05:52:53.556Z,19.09
2017-04-16T05:54:03.844Z,19.01
2017-04-16T05:55:14.132Z,19.07
2017-04-16T05:56:24.422Z,19.01
2017-04-16T05:57:34.710Z,19.07
2017-04-16T05:58:44.991Z,19.07
2017-04-16T05:59:55.276Z,19.09
2017-04-16T06:01:05.495Z,19.07
2017-04-16T06:02:15.783Z,19.12
2017-04-16T06:03:26.063Z,19.04
2017-04-16T06:04:36.044Z,19.05
2017-04-16T06:05:46.337Z,19.05
2017-04-16T06:06:56.881Z,19.08
2017-04-16T06:08:06.845Z,19.08
2017-04-16T06:09:17.148Z,19.05
2017-04-16T06:10:27.442Z,19.08
2017-04-16T06:11:37.720Z,19.12
2017-04-16T06:12:48.243Z,19.08
2017-04-16T06:13:58.526Z,19.11
2017-04-16T06:15:08.176Z,19.12
2017-04-16T06:16:18.140Z,19.11
2017-04-16T06:17:28.437Z,19.11
2017-04-16T06:18:38.962Z,19.08
2017-04-16T06:19:48.945Z,19.05
2017-04-16T06:20:59.226Z,19.04
2017-04-16T06:22:09.508Z,19.08
2017-04-16T06:23:19.791Z,19.12
2017-04-16T06:24:30.376Z,19.07
2017-04-16T06:25:40.662Z,19.04
2017-04-16T06:26:50.952Z,19.07
2017-04-16T06:28:00.919Z,19
2017-04-16T06:29:11.213Z,19.09
2017-04-16T06:30:21.748Z,19.11
2017-04-16T06:31:32.235Z,19.07
2017-04-16T06:32:42.623Z,19.07
2017-04-16T06:33:53.092Z,19.12
2017-04-16T06:35:02.754Z,19.07
2017-04-16T06:36:13.283Z,19.12
2017-04-16T06:37:23.251Z,19.09
2017-04-16T06:38:33.547Z,19.08
2017-04-16T06:39:43.841Z,19.08
2017-04-16T06:40:54.127Z,19.11
2017-04-16T06:42:04.703Z,19.12
2017-04-16T06:43:14.675Z,19.11
2017-04-16T06:44:24.665Z,19.08
2017-04-16T06:45:34.645Z,19.08
2017-04-16T06:46:44.604Z,19.04
2017-04-16T06:47:54.826Z,19.05
2017-04-16T06:49:05.111Z,19.08
2017-04-16T06:50:15.080Z,19.07
2017-04-16T06:51:25.051Z,19.09
2017-04-16T06:52:35.029Z,19.11
2017-04-16T06:53:44.637Z,19.07
2017-04-16T06:54:54.931Z,19.04
2017-04-16T06:56:04.591Z,19.22
2017-04-16T06:57:14.878Z,19.16
2017-04-16T06:58:24.849Z,19.09
2017-04-16T06:59:35.379Z,19.08
2017-04-16T07:00:45.685Z,19.08
2017-04-16T07:01:55.974Z,19.16
2017-04-16T07:03:05.953Z,19.2
2017-04-16T07:04:16.235Z,19.04
2017-04-16T07:05:26.514Z,19.08
2017-04-16T07:06:36.798Z,19.05
2017-04-16T07:07:46.783Z,19.11
2017-04-16T07:08:56.769Z,19.08
2017-04-16T07:10:07.194Z,19.08
2017-04-16T07:11:17.935Z,19.17
2017-04-16T07:12:28.339Z,19.22
2017-04-16T07:13:38.628Z,19.19
2017-04-16T07:14:48.910Z,19.08
2017-04-16T07:15:59.202Z,19.15
2017-04-16T07:17:09.732Z,19.19
2017-04-16T07:18:20.009Z,19.12
2017-04-16T07:19:29.677Z,19.16
2017-04-16T07:20:39.653Z,19.12
2017-04-16T07:21:49.937Z,19.15
2017-04-16T07:23:00.156Z,19.16
2017-04-16T07:24:10.457Z,19.15
2017-04-16T07:25:20.736Z,19.2
2017-04-16T07:26:31.024Z,19.09
2017-04-16T07:27:40.700Z,19.07
2017-04-16T07:28:51.242Z,19.19
2017-04-16T07:30:01.521Z,19.19
2017-04-16T07:31:11.796Z,19.15
2017-04-16T07:32:21.803Z,19.2
2017-04-16T07:33:32.090Z,19.17
2017-04-16T07:34:42.637Z,19.12
2017-04-16T07:35:52.612Z,19.2
2017-04-16T07:37:02.591Z,19.07
2017-04-16T07:38:12.878Z,19.11
2017-04-16T07:39:23.162Z,19.07
2017-04-16T07:40:33.712Z,19.11
2017-04-16T07:41:44.015Z,19.05
2017-04-16T07:42:53.991Z,19.04
2017-04-16T07:44:04.276Z,19.09
2017-04-16T07:45:14.563Z,19.08
2017-04-16T07:46:25.103Z,19.08
2017-04-16T07:47:35.077Z,19.05
2017-04-16T07:48:45.114Z,19.08
2017-04-16T07:49:55.429Z,19.11
2017-04-16T07:51:05.794Z,19.05
2017-04-16T07:52:15.893Z,18.98
2017-04-16T07:53:26.001Z,19.04
2017-04-16T07:54:36.329Z,19.09
2017-04-16T07:55:46.294Z,19.07
2017-04-16T07:56:56.267Z,19.09
2017-04-16T07:58:06.534Z,19.01
2017-04-16T07:59:16.837Z,19.05
2017-04-16T08:00:27.144Z,19.07
2017-04-16T08:01:37.424Z,19.08
2017-04-16T08:02:47.396Z,19.07
2017-04-16T08:03:57.925Z,18.98
2017-04-16T08:05:07.896Z,19
2017-04-16T08:06:18.182Z,19.01
2017-04-16T08:07:28.160Z,19.01
2017-04-16T08:08:38.136Z,19.04
2017-04-16T08:09:48.355Z,18.96
2017-04-16T08:10:58.648Z,19.07
2017-04-16T08:12:08.613Z,18.98
2017-04-16T08:13:18.896Z,18.97
2017-04-16T08:14:29.165Z,19
2017-04-16T08:15:39.742Z,18.96
2017-04-16T08:16:49.713Z,18.92
2017-04-16T08:17:59.681Z,18.98
2017-04-16T08:19:09.648Z,18.91
2017-04-16T08:20:19.642Z,18.97
2017-04-16T08:21:29.857Z,19.04
2017-04-16T08:22:40.137Z,19
2017-04-16T08:23:50.424Z,19.05
2017-04-16T08:25:00.087Z,18.98
2017-04-16T08:26:10.378Z,19.05
2017-04-16T08:27:20.974Z,19.11
2017-04-16T08:28:31.264Z,19.04
2017-04-16T08:29:41.540Z,19.04
2017-04-16T08:30:51.212Z,19.07
2017-04-16T08:32:01.191Z,19.08
2017-04-16T08:33:11.601Z,19.05
2017-04-16T08:34:21.937Z,19.07
2017-04-16T08:35:32.215Z,19.08
2017-04-16T08:36:42.258Z,19.08
2017-04-16T08:37:52.546Z,19.05
2017-04-16T08:39:03.083Z,19.12
2017-04-16T08:40:13.388Z,19.04
2017-04-16T08:41:23.675Z,19.01
2017-04-16T08:42:33.971Z,19.11
2017-04-16T08:43:44.271Z,19.07
2017-04-16T08:44:54.551Z,19.11
2017-04-16T08:46:04.840Z,19.2
2017-04-16T08:47:15.124Z,19.17
2017-04-16T08:48:25.403Z,19.15
2017-04-16T08:49:35.076Z,19.17
2017-04-16T08:50:45.613Z,19.2
2017-04-16T08:51:55.596Z,19.15
2017-04-16T08:53:05.882Z,19.17
2017-04-16T08:54:15.577Z,19.15
2017-04-16T08:55:25.561Z,19.16
2017-04-16T08:56:36.145Z,19.12
2017-04-16T08:57:46.429Z,19.05
2017-04-16T08:58:56.411Z,19.11
2017-04-16T09:00:06.701Z,19.17
2017-04-16T09:01:16.976Z,19.16
2017-04-16T09:02:27.517Z,19.19
2017-04-16T09:03:37.500Z,19.17
2017-04-16T09:04:47.823Z,19.19
2017-04-16T09:05:57.488Z,19.2
2017-04-16T09:07:07.478Z,19.2
2017-04-16T09:08:17.835Z,19.22
2017-04-16T09:09:28.129Z,19.27
2017-04-16T09:10:38.505Z,19.24
2017-04-16T09:11:48.491Z,19.23
2017-04-16T09:12:58.153Z,19.23
2017-04-16T09:14:08.381Z,19.24
2017-04-16T09:15:18.672Z,19.27
2017-04-16T09:16:28.646Z,19.22
2017-04-16T09:17:38.941Z,19.23
2017-04-16T09:18:48.947Z,19.32
2017-04-16T09:19:59.482Z,19.29
2017-04-16T09:21:09.772Z,19.27
2017-04-16T09:22:19.756Z,19.3
2017-04-16T09:23:30.054Z,19.29
2017-04-16T09:24:40.048Z,19.23
2017-04-16T09:25:50.334Z,19.27
2017-04-16T09:27:00.618Z,19.24
2017-04-16T09:28:10.603Z,19.23
2017-04-16T09:29:20.898Z,19.27
2017-04-16T09:30:31.189Z,19.24
2017-04-16T09:31:41.736Z,19.24
2017-04-16T09:32:52.073Z,19.32
2017-04-16T09:34:01.738Z,19.27
2017-04-16T09:35:11.729Z,19.27
2017-04-16T09:36:21.698Z,19.3
2017-04-16T09:37:32.292Z,19.32
2017-04-16T09:38:42.584Z,19.29
2017-04-16T09:39:52.564Z,19.27
2017-04-16T09:41:02.539Z,19.24
2017-04-16T09:42:12.261Z,19.27
2017-04-16T09:43:22.488Z,19.26
2017-04-16T09:44:32.461Z,19.23
2017-04-16T09:45:42.564Z,19.26
2017-04-16T09:46:52.840Z,19.34
2017-04-16T09:48:03.137Z,19.3
2017-04-16T09:49:13.383Z,19.3
2017-04-16T09:50:23.685Z,19.34
2017-04-16T09:51:33.970Z,19.3
2017-04-16T09:52:43.639Z,19.3
2017-04-16T09:53:53.646Z,19.34
2017-04-16T09:55:04.192Z,19.29
2017-04-16T09:56:14.162Z,19.27
2017-04-16T09:57:24.463Z,19.38
2017-04-16T09:58:34.768Z,19.24
2017-04-16T09:59:44.432Z,19.32
2017-04-16T10:00:54.994Z,19.32
2017-04-16T10:02:05.278Z,19.35
2017-04-16T10:03:15.569Z,19.39
2017-04-16T10:04:25.226Z,19.32
2017-04-16T10:05:35.511Z,19.35
2017-04-16T10:06:45.747Z,19.34
2017-04-16T10:07:56.037Z,19.3
2017-04-16T10:09:06.015Z,19.3
2017-04-16T10:10:15.979Z,19.39
2017-04-16T10:11:26.262Z,19.38
2017-04-16T10:12:36.488Z,19.37
2017-04-16T10:13:46.476Z,19.37
2017-04-16T10:14:56.779Z,19.32
2017-04-16T10:16:06.754Z,19.34
2017-04-16T10:17:16.095Z,19.38
2017-04-16T10:18:25.761Z,19.34
2017-04-16T10:19:36.053Z,19.32
2017-04-16T10:20:46.346Z,19.35
2017-04-16T10:21:56.836Z,19.38
2017-04-16T10:23:07.130Z,19.35
2017-04-16T10:24:17.497Z,19.37
2017-04-16T10:25:27.171Z,19.37
2017-04-16T10:26:37.157Z,19.37
2017-04-16T10:27:46.825Z,19.38
2017-04-16T10:28:57.122Z,19.47
2017-04-16T10:30:07.666Z,19.37
2017-04-16T10:31:17.955Z,19.48
2017-04-16T10:32:28.240Z,19.52
2017-04-16T10:33:38.535Z,19.39
2017-04-16T10:34:48.817Z,19.48
2017-04-16T10:35:58.797Z,19.44
2017-04-16T10:37:08.783Z,19.48
2017-04-16T10:38:19.065Z,19.41
2017-04-16T10:39:29.351Z,19.48
2017-04-16T10:40:39.337Z,19.44
2017-04-16T10:41:49.915Z,19.48
2017-04-16T10:43:00.193Z,19.45
2017-04-16T10:44:10.186Z,19.48
2017-04-16T10:45:20.477Z,19.47
2017-04-16T10:46:30.452Z,19.47
2017-04-16T10:47:40.692Z,19.42
2017-04-16T10:48:51.018Z,19.45
2017-04-16T10:50:01.016Z,19.45
2017-04-16T10:51:11.599Z,19.52
2017-04-16T10:52:21.881Z,19.42
2017-04-16T10:53:32.472Z,19.45
2017-04-16T10:54:42.847Z,19.35
2017-04-16T10:55:53.135Z,19.37
2017-04-16T10:57:03.116Z,19.39
2017-04-16T10:58:13.423Z,19.48
2017-04-16T10:59:23.660Z,19.39
2017-04-16T11:00:33.636Z,19.39
2017-04-16T11:01:43.917Z,19.35
2017-04-16T11:02:54.227Z,19.34
2017-04-16T11:04:04.516Z,19.37
2017-04-16T11:05:15.307Z,19.39
2017-04-16T11:06:24.972Z,19.35
2017-04-16T11:07:34.967Z,19.35
2017-04-16T11:08:44.935Z,19.41
2017-04-16T11:09:55.236Z,19.35
2017-04-16T11:11:05.792Z,19.37
2017-04-16T11:12:15.761Z,19.37
2017-04-16T11:13:25.753Z,19.35
2017-04-16T11:14:36.049Z,19.27
2017-04-16T11:15:46.334Z,19.27
2017-04-16T11:16:56.895Z,19.26
2017-04-16T11:18:07.191Z,19.29
2017-04-16T11:19:17.496Z,19.29
2017-04-16T11:20:27.806Z,19.24
2017-04-16T11:21:38.120Z,19.3
2017-04-16T11:22:48.036Z,19.24
2017-04-16T11:23:57.698Z,19.24
2017-04-16T11:25:07.780Z,19.2
2017-04-16T11:26:18.262Z,19.26
2017-04-16T11:27:28.241Z,19.22
2017-04-16T11:28:38.497Z,19.22
2017-04-16T11:29:48.485Z,19.2
2017-04-16T11:30:58.778Z,19.26
2017-04-16T11:32:09.107Z,19.19
2017-04-16T11:33:19.394Z,19.24
2017-04-16T11:34:29.616Z,19.27
2017-04-16T11:35:39.902Z,19.17
2017-04-16T11:36:49.892Z,19.19
2017-04-16T11:38:00.197Z,19.23
2017-04-16T11:39:10.494Z,19.19
2017-04-16T11:40:20.478Z,19.2
2017-04-16T11:41:30.775Z,19.19
2017-04-16T11:42:40.778Z,19.24
2017-04-16T11:43:51.082Z,19.27
2017-04-16T11:45:01.372Z,19.27
2017-04-16T11:46:11.595Z,19.26
2017-04-16T11:47:21.566Z,19.17
2017-04-16T11:48:31.543Z,19.24
2017-04-16T11:49:41.858Z,19.27
2017-04-16T11:50:52.180Z,19.32
2017-04-16T11:52:02.723Z,19.27
2017-04-16T11:53:12.706Z,19.26
2017-04-16T11:54:22.686Z,19.26
2017-04-16T11:55:32.996Z,19.27
2017-04-16T11:56:43.286Z,19.29
2017-04-16T11:57:53.923Z,19.35
2017-04-16T11:59:04.021Z,19.34
2017-04-16T12:00:13.692Z,19.29
2017-04-16T12:01:23.391Z,19.34
2017-04-16T12:02:33.673Z,19.35
2017-04-16T12:03:44.228Z,19.38
2017-04-16T12:04:54.530Z,19.34
2017-04-16T12:06:04.830Z,19.27
2017-04-16T12:07:14.814Z,19.34
2017-04-16T12:08:24.169Z,19.29
2017-04-16T12:09:34.394Z,19.32
2017-04-16T12:10:44.385Z,19.27
2017-04-16T12:11:54.055Z,19.29
2017-04-16T12:13:03.737Z,19.37
2017-04-16T12:14:13.711Z,19.23
2017-04-16T12:15:24.255Z,19.27
2017-04-16T12:16:33.912Z,19.26
2017-04-16T12:17:44.198Z,19.26
2017-04-16T12:18:54.501Z,19.37
2017-04-16T12:20:04.785Z,19.24
2017-04-16T12:21:15.018Z,19.26
2017-04-16T12:22:24.994Z,19.23
2017-04-16T12:23:35.294Z,19.26
2017-04-16T12:24:45.594Z,19.24
2017-04-16T12:25:55.881Z,19.22
2017-04-16T12:27:06.433Z,19.22
2017-04-16T12:28:16.416Z,19.19
2017-04-16T12:29:26.436Z,19.27
2017-04-16T12:30:36.728Z,19.22
2017-04-16T12:31:47.083Z,19.23
2017-04-16T12:32:57.797Z,19.27
2017-04-16T12:34:08.092Z,19.22
2017-04-16T12:35:17.783Z,19.19
2017-04-16T12:36:28.069Z,19.23
2017-04-16T12:37:38.372Z,19.24
2017-04-16T12:38:48.683Z,19.22
2017-04-16T12:39:58.682Z,19.23
2017-04-16T12:41:08.666Z,19.12
2017-04-16T12:42:18.960Z,19.17
2017-04-16T12:43:29.251Z,19.17
2017-04-16T12:44:39.478Z,19.2
2017-04-16T12:45:49.793Z,19.16
2017-04-16T12:46:59.772Z,19.17
2017-04-16T12:48:09.742Z,19.2
2017-04-16T12:49:19.421Z,19.16
2017-04-16T12:50:29.989Z,19.19
2017-04-16T12:51:40.293Z,19.2
2017-04-16T12:52:50.289Z,19.2
2017-04-16T12:54:00.574Z,19.17
2017-04-16T12:55:10.869Z,19.08
2017-04-16T12:56:21.410Z,19.16
2017-04-16T12:57:31.699Z,19.19
2017-04-16T12:58:41.689Z,19.15
2017-04-16T12:59:51.990Z,19.15
2017-04-16T13:01:01.970Z,19.17
2017-04-16T13:02:12.201Z,19.15
2017-04-16T13:03:22.520Z,19.19
2017-04-16T13:04:32.497Z,19.16
2017-04-16T13:05:42.774Z,19.15
2017-04-16T13:06:53.085Z,19.16
2017-04-16T13:08:03.002Z,19.15
2017-04-16T13:09:13.291Z,19.15
2017-04-16T13:10:23.600Z,19.16
2017-04-16T13:11:33.908Z,19.2
2017-04-16T13:12:43.877Z,19.2
2017-04-16T13:13:54.444Z,19.2
2017-04-16T13:15:04.733Z,19.19
2017-04-16T13:16:14.386Z,19.2
2017-04-16T13:17:24.670Z,19.17
2017-04-16T13:18:34.641Z,19.23
2017-04-16T13:19:45.245Z,19.15
2017-04-16T13:20:55.231Z,19.2
2017-04-16T13:22:05.202Z,19.16
2017-04-16T13:23:15.181Z,19.2
2017-04-16T13:24:25.161Z,19.23
2017-04-16T13:25:35.702Z,19.19
2017-04-16T13:26:45.992Z,19.22
2017-04-16T13:27:56.295Z,19.16
2017-04-16T13:29:05.970Z,19.26
2017-04-16T13:30:16.271Z,19.27
2017-04-16T13:31:26.825Z,19.17
2017-04-16T13:32:36.801Z,19.23
2017-04-16T13:33:47.102Z,19.27
2017-04-16T13:34:57.407Z,19.19
2017-04-16T13:36:07.092Z,19.2
2017-04-16T13:37:17.764Z,19.2
2017-04-16T13:38:28.221Z,19.29
2017-04-16T13:39:38.849Z,19.27
2017-04-16T13:40:49.215Z,19.2
2017-04-16T13:41:58.889Z,19.22
2017-04-16T13:43:09.191Z,19.26
2017-04-16T13:44:19.472Z,19.22
2017-04-16T13:45:29.454Z,19.34
2017-04-16T13:46:39.730Z,19.34
2017-04-16T13:47:50.029Z,19.3
2017-04-16T13:49:00.650Z,19.35
2017-04-16T13:50:10.949Z,19.39
2017-04-16T13:51:20.920Z,19.34
2017-04-16T13:52:30.268Z,19.27
2017-04-16T13:53:39.946Z,19.29
2017-04-16T13:54:50.481Z,19.3
2017-04-16T13:56:00.769Z,19.34
2017-04-16T13:57:11.061Z,19.34
2017-04-16T13:58:21.358Z,19.3
2017-04-16T13:59:31.056Z,19.29
2017-04-16T14:00:40.963Z,19.27
2017-04-16T14:01:51.252Z,19.35
2017-04-16T14:03:01.232Z,19.32
2017-04-16T14:04:11.513Z,19.35
2017-04-16T14:05:21.493Z,19.38
2017-04-16T14:06:32.081Z,19.32
2017-04-16T14:07:42.364Z,19.37
2017-04-16T14:08:52.357Z,19.34
2017-04-16T14:10:02.354Z,19.3
2017-04-16T14:11:12.649Z,19.29
2017-04-16T14:12:23.185Z,19.32
2017-04-16T14:13:33.169Z,19.3
2017-04-16T14:14:43.719Z,19.35
2017-04-16T14:15:53.885Z,19.37
2017-04-16T14:17:04.143Z,19.38
2017-04-16T14:18:14.674Z,19.35
2017-04-16T14:19:24.674Z,19.26
2017-04-16T14:20:34.670Z,19.34
2017-04-16T14:21:44.958Z,19.26
2017-04-16T14:22:55.254Z,19.29
2017-04-16T14:24:05.801Z,19.3
2017-04-16T14:25:15.469Z,19.37
2017-04-16T14:26:25.768Z,19.34
2017-04-16T14:27:35.765Z,19.32
2017-04-16T14:28:45.775Z,19.41
2017-04-16T14:29:55.696Z,19.32
2017-04-16T14:31:05.996Z,19.3
2017-04-16T14:32:16.286Z,19.29
2017-04-16T14:33:26.582Z,19.38
2017-04-16T14:34:36.569Z,19.34
2017-04-16T14:35:46.788Z,19.35
2017-04-16T14:36:57.099Z,19.34
2017-04-16T14:38:07.396Z,19.3
2017-04-16T14:39:17.700Z,19.3
2017-04-16T14:40:27.382Z,19.34
2017-04-16T14:41:37.702Z,19.41
2017-04-16T14:42:48.000Z,19.26
2017-04-16T14:43:58.325Z,19.3
2017-04-16T14:45:08.372Z,19.3
2017-04-16T14:46:18.348Z,19.3
2017-04-16T14:47:29.405Z,19.27
2017-04-16T14:48:39.835Z,19.34
2017-04-16T14:49:49.807Z,19.3
2017-04-16T14:51:00.321Z,19.34
2017-04-16T14:52:10.627Z,19.27
2017-04-16T14:53:21.176Z,19.37
2017-04-16T14:54:30.851Z,19.39
2017-04-16T14:55:41.139Z,19.3
2017-04-16T14:56:51.107Z,19.35
2017-04-16T14:58:01.410Z,19.38
2017-04-16T14:59:11.946Z,19.38
2017-04-16T15:00:22.246Z,19.3
2017-04-16T15:01:32.225Z,19.35
2017-04-16T15:02:42.525Z,19.3
2017-04-16T15:03:52.811Z,19.27
2017-04-16T15:05:02.783Z,19.41
2017-04-16T15:06:12.755Z,19.39
2017-04-16T15:07:23.172Z,19.41
2017-04-16T15:08:33.469Z,19.3